Time;durP1;ratioP1;P1;durP2;ratioP2;P2;SDS_P1;SDS_P2;PMS_P1;PMS_P2;Temp;Humidity;BMP_temperature;BMP_pressure;BME280_temperature;BME280_humidity;BME280_pressure;Samples;Min_cycle;Max_cycle;Signal;HPM_P1;HPM_P2
2021/11/11 00:00:11;;;;;;;;;;;;;;;6.35;60.82;99129.55;1703109;82;24586;-86
2021/11/11 00:02:42;;;;;;;;;;;;;;;6.38;60.91;99122.95;1711272;82;20179;-87
2021/11/11 00:05:09;;;;;;;;;;;;;;;6.35;60.96;99133.45;1707426;82;25381;-87
2021/11/11 00:07:36;;;;;;;;;;;;;;;6.36;61.04;99132.55;1710160;82;21997;-86
2021/11/11 00:10:03;;;;;;;;;;;;;;;6.34;61.08;99138.25;1710081;83;25992;-86
2021/11/11 00:12:34;;;;;;;;;;;;;;;6.39;61.16;99133.70;1710809;83;24484;-87
2021/11/11 00:14:57;;;;;;;;;;;;;;;6.48;61.24;99128.99;1714554;83;20495;-86
2021/11/11 00:17:27;;;;;;;;;;;;;;;6.50;61.28;99132.80;1696761;83;20824;-86
2021/11/11 00:19:53;;;;;;;;;;;;;;;6.51;61.33;99134.05;1703512;83;22004;-86
2021/11/11 00:22:21;;;;;;;;;;;;;;;6.45;61.38;99136.05;1703441;83;26924;-86
2021/11/11 00:24:47;;;;;;;;;;;;;;;6.37;61.40;99134.25;1706036;83;25471;-86
2021/11/11 00:27:13;;;;;;;;;;;;;;;6.39;61.48;99131.95;1705644;83;20239;-86
2021/11/11 00:29:40;;;;;;;;;;;;;;;6.38;61.50;99135.49;1709802;83;24736;-87
2021/11/11 00:32:06;;;;;;;;;;;;;;;6.39;61.57;99137.61;1709742;82;22212;-87
2021/11/11 00:34:32;;;;;;;;;;;;;;;6.39;61.62;99131.11;1713765;82;25958;-87
2021/11/11 00:36:59;;;;;;;;;;;;;;;6.40;61.67;99115.91;1709454;83;24435;-87
2021/11/11 00:39:25;;;;;;;;;;;;;;;6.36;61.71;99123.00;1706750;83;20245;-86
2021/11/11 00:41:52;;;;;;;;;;;;;;;6.35;61.78;99129.55;1706239;81;24811;-87
2021/11/11 00:44:18;;;;;;;;;;;;;;;6.27;61.85;99124.21;1705885;82;21935;-87
2021/11/11 00:46:44;;;;;;;;;;;;;;;6.28;61.92;99121.16;1712976;82;26037;-87
2021/11/11 00:49:11;;;;;;;;;;;;;;;6.16;61.96;99121.23;1709136;82;25179;-86
2021/11/11 00:51:46;;;;;;;;;;;;;;;6.16;62.01;99116.49;1714406;83;20157;-86
2021/11/11 00:54:12;;;;;;;;;;;;;;;6.21;62.07;99118.45;1705375;82;24836;-87
2021/11/11 00:56:41;;;;;;;;;;;;;;;6.15;62.13;99109.15;1708380;83;22756;-87
2021/11/11 00:59:10;;;;;;;;;;;;;;;6.14;62.17;99107.45;1705037;82;26056;-86
2021/11/11 01:01:35;;;;;;;;;;;;;;;6.17;62.26;99107.31;1709189;82;23908;-87
2021/11/11 01:04:01;;;;;;;;;;;;;;;6.24;62.34;99112.66;1716180;83;20525;-86
2021/11/11 01:06:33;;;;;;;;;;;;;;;6.29;62.41;99105.96;1705629;82;25479;-86
2021/11/11 01:09:05;;;;;;;;;;;;;;;6.29;62.48;99099.47;1709501;83;21958;-86
2021/11/11 01:11:31;;;;;;;;;;;;;;;6.28;62.53;99109.02;1707800;82;26259;-86
2021/11/11 01:13:57;;;;;;;;;;;;;;;6.26;62.54;99104.35;1714281;83;24437;-86
2021/11/11 01:16:23;;;;;;;;;;;;;;;6.22;62.58;99101.92;1713574;82;20204;-86
2021/11/11 01:18:50;;;;;;;;;;;;;;;6.18;62.62;99105.11;1711489;82;24925;-86
2021/11/11 01:21:16;;;;;;;;;;;;;;;6.18;62.70;99106.86;1714118;82;22229;-86
2021/11/11 01:23:42;;;;;;;;;;;;;;;6.13;62.77;99109.66;1714910;83;26742;-86
2021/11/11 01:26:09;;;;;;;;;;;;;;;6.06;62.82;99104.76;1687038;84;24393;-86
2021/11/11 01:28:35;;;;;;;;;;;;;;;5.99;62.87;99101.59;1686484;83;20490;-86
2021/11/11 01:31:02;;;;;;;;;;;;;;;5.93;62.91;99100.98;1685057;84;24970;-86
2021/11/11 01:33:28;;;;;;;;;;;;;;;5.87;63.01;99097.73;1685162;83;22051;-85
2021/11/11 01:35:54;;;;;;;;;;;;;;;5.84;63.08;99095.66;1714948;83;25957;-86
2021/11/11 01:38:20;;;;;;;;;;;;;;;5.84;63.17;99091.76;1692488;84;25072;-86
2021/11/11 01:40:46;;;;;;;;;;;;;;;5.81;63.26;99095.80;1688532;84;20229;-86
2021/11/11 01:43:12;;;;;;;;;;;;;;;5.80;63.36;99097.99;1709992;83;24978;-87
2021/11/11 01:45:40;;;;;;;;;;;;;;;5.79;63.45;99089.80;1712972;83;21905;-87
2021/11/11 01:48:08;;;;;;;;;;;;;;;5.75;63.54;99080.00;1713412;83;26186;-87
2021/11/11 01:50:46;;;;;;;;;;;;;;;5.75;63.63;99086.50;1711989;82;24118;-87
2021/11/11 01:53:13;;;;;;;;;;;;;;;5.76;63.73;99079.10;1677393;83;20233;-87
2021/11/11 01:55:40;;;;;;;;;;;;;;;5.75;63.84;99077.86;1691851;84;24962;-87
2021/11/11 01:58:06;;;;;;;;;;;;;;;5.72;63.96;99080.14;1688649;83;22055;-87
2021/11/11 02:00:34;;;;;;;;;;;;;;;5.72;64.03;99071.50;1710606;83;26047;-87
2021/11/11 02:03:06;;;;;;;;;;;;;;;5.72;64.12;99072.80;1713234;82;24455;-87
2021/11/11 02:05:30;;;;;;;;;;;;;;;5.71;64.24;99072.40;1712014;82;20266;-86
2021/11/11 02:07:56;;;;;;;;;;;;;;;5.68;64.34;99067.31;1686089;84;24985;-87
2021/11/11 02:10:23;;;;;;;;;;;;;;;5.68;64.45;99068.61;1687097;83;21955;-87
2021/11/11 02:12:50;;;;;;;;;;;;;;;5.69;64.54;99067.26;1698072;83;25978;-87
2021/11/11 02:15:17;;;;;;;;;;;;;;;5.68;64.66;99065.56;1713180;82;24430;-86
2021/11/11 02:17:43;;;;;;;;;;;;;;;5.69;64.72;99058.63;1688310;83;20221;-87
2021/11/11 02:20:11;;;;;;;;;;;;;;;5.65;64.83;99055.31;1710433;83;25955;-86
2021/11/11 02:22:37;;;;;;;;;;;;;;;5.63;64.92;99052.38;1701426;83;21990;-86
2021/11/11 02:25:08;;;;;;;;;;;;;;;5.68;65.02;99049.14;1701040;83;26066;-86
2021/11/11 02:27:34;;;;;;;;;;;;;;;5.72;65.14;99050.73;1696285;83;25264;-86
2021/11/11 02:30:00;;;;;;;;;;;;;;;5.75;65.24;99057.93;1703191;83;20259;-86
2021/11/11 02:32:31;;;;;;;;;;;;;;;5.75;65.34;99055.78;1701088;83;25981;-87
2021/11/11 02:34:57;;;;;;;;;;;;;;;5.75;65.44;99048.84;1702460;84;22047;-86
2021/11/11 02:37:25;;;;;;;;;;;;;;;5.76;65.54;99044.49;1703377;83;26628;-87
2021/11/11 02:39:54;;;;;;;;;;;;;;;5.74;65.63;99056.23;1691652;84;24686;-86
2021/11/11 02:42:21;;;;;;;;;;;;;;;5.70;65.72;99057.27;1698826;83;20215;-86
2021/11/11 02:44:49;;;;;;;;;;;;;;;5.67;65.78;99056.11;1673469;84;22153;-86
2021/11/11 02:47:15;;;;;;;;;;;;;;;5.70;65.87;99053.83;1700840;83;21970;-86
2021/11/11 02:49:41;;;;;;;;;;;;;;;5.69;65.96;99051.68;1702689;83;25932;-85
2021/11/11 02:52:07;;;;;;;;;;;;;;;5.69;66.02;99052.12;1703531;83;24564;-83
2021/11/11 02:54:34;;;;;;;;;;;;;;;5.67;66.09;99048.77;1700687;83;20236;-86
2021/11/11 02:57:00;;;;;;;;;;;;;;;5.64;66.17;99045.83;1701178;83;25024;-86
2021/11/11 02:59:27;;;;;;;;;;;;;;;5.59;66.23;99035.23;1699517;83;21935;-86
2021/11/11 03:01:53;;;;;;;;;;;;;;;5.58;66.31;99043.92;1702299;84;25968;-86
2021/11/11 03:04:19;;;;;;;;;;;;;;;5.54;66.39;99039.77;1703837;83;24498;-86
2021/11/11 03:06:53;;;;;;;;;;;;;;;5.55;66.47;99038.42;1702501;83;20309;-86
2021/11/11 03:09:19;;;;;;;;;;;;;;;5.54;66.55;99037.17;1701573;83;25101;-86
2021/11/11 03:11:47;;;;;;;;;;;;;;;5.52;66.66;99033.33;1703700;83;21978;-86
2021/11/11 03:14:14;;;;;;;;;;;;;;;5.53;66.72;99035.48;1702519;84;26178;-86
2021/11/11 03:16:40;;;;;;;;;;;;;;;5.54;66.83;99041.92;1702534;83;25279;-86
2021/11/11 03:19:08;;;;;;;;;;;;;;;5.54;66.90;99041.92;1701673;83;20219;-86
2021/11/11 03:21:34;;;;;;;;;;;;;;;5.54;67.01;99038.47;1704783;83;24951;-86
2021/11/11 03:24:00;;;;;;;;;;;;;;;5.52;67.10;99037.67;1697590;84;21969;-86
2021/11/11 03:26:26;;;;;;;;;;;;;;;5.48;67.17;99040.41;1695579;83;26000;-86
2021/11/11 03:28:52;;;;;;;;;;;;;;;5.50;67.26;99044.70;1696416;83;24513;-86
2021/11/11 03:31:20;;;;;;;;;;;;;;;5.51;67.36;99044.61;1696495;83;20272;-86
2021/11/11 03:33:46;;;;;;;;;;;;;;;5.51;67.43;99043.80;1694565;83;25059;-85
2021/11/11 03:36:12;;;;;;;;;;;;;;;5.52;67.51;99046.77;1698294;84;22232;-86
2021/11/11 03:38:38;;;;;;;;;;;;;;;5.56;67.59;99043.16;1695658;83;26020;-85
2021/11/11 03:41:04;;;;;;;;;;;;;;;5.55;67.68;99041.02;1696637;84;24431;-86
2021/11/11 03:43:30;;;;;;;;;;;;;;;5.58;67.75;99042.63;1692370;84;20230;-86
2021/11/11 03:45:56;;;;;;;;;;;;;;;5.60;67.81;99036.94;1696140;83;25210;-86
2021/11/11 03:48:22;;;;;;;;;;;;;;;5.56;67.87;99034.92;1728268;80;21934;-86
2021/11/11 03:50:48;;;;;;;;;;;;;;;5.56;67.94;99031.03;1735373;80;25970;-85
2021/11/11 03:53:14;;;;;;;;;;;;;;;5.56;68.02;99034.92;1738938;80;24375;-85
2021/11/11 03:55:40;;;;;;;;;;;;;;;5.54;68.08;99034.58;1704292;82;20262;-86
2021/11/11 03:58:06;;;;;;;;;;;;;;;5.53;68.14;99034.18;1714999;83;25017;-86
2021/11/11 04:00:33;;;;;;;;;;;;;;;5.50;68.19;99022.19;1704370;82;21955;-86
2021/11/11 04:03:05;;;;;;;;;;;;;;;5.53;68.27;99027.69;1712591;82;25927;-86
2021/11/11 04:05:31;;;;;;;;;;;;;;;5.47;68.33;99023.14;1703073;83;24590;-86
2021/11/11 04:07:57;;;;;;;;;;;;;;;5.40;68.43;99021.68;1709856;81;20534;-85
2021/11/11 04:10:24;;;;;;;;;;;;;;;5.42;68.49;99026.82;1706612;82;24950;-86
2021/11/11 04:12:50;;;;;;;;;;;;;;;5.42;68.55;99027.67;1703619;82;22083;-86
2021/11/11 04:15:16;;;;;;;;;;;;;;;5.41;68.62;99018.63;1706409;82;26562;-86
2021/11/11 04:17:42;;;;;;;;;;;;;;;5.42;68.68;99021.18;1673739;83;24677;-85
2021/11/11 04:20:09;;;;;;;;;;;;;;;5.45;68.74;99014.55;1706117;83;20236;-85
2021/11/11 04:22:35;;;;;;;;;;;;;;;5.50;68.80;99012.25;1714252;82;24972;-85
2021/11/11 04:25:03;;;;;;;;;;;;;;;5.50;68.87;99011.80;1714754;81;21990;-85
2021/11/11 04:27:35;;;;;;;;;;;;;;;5.48;68.94;99009.70;1717342;82;25938;-85
2021/11/11 04:30:18;;;;;;;;;;;;;;;5.44;69.00;99014.19;1713826;82;24463;-86
2021/11/11 04:32:27;;;;;;;;;;;;;;;5.41;69.06;99028.57;1708676;81;20525;-86
2021/11/11 04:34:58;;;;;;;;;;;;;;;5.39;69.12;99029.10;1721569;81;25626;-85
2021/11/11 04:37:30;;;;;;;;;;;;;;;5.39;69.18;99024.36;1715102;82;21989;-86
2021/11/11 04:40:31;;;;;;;;;;;;;;;5.37;69.24;99020.52;1708774;82;26167;-86
2021/11/11 04:42:58;;;;;;;;;;;;;;;5.40;69.32;99015.19;1709444;82;24449;-86
2021/11/11 04:45:38;;;;;;;;;;;;;;;5.45;69.41;99013.26;1715171;82;20512;-86
2021/11/11 05:03:36;;;;;;;;;;;;;;;5.41;69.84;99005.66;1725084;82;22757;-86
2021/11/11 05:06:02;;;;;;;;;;;;;;;5.34;69.91;98998.59;1716583;82;26254;-86
2021/11/11 05:08:29;;;;;;;;;;;;;;;5.42;69.98;99008.20;1717770;82;24079;-85
2021/11/11 05:10:56;;;;;;;;;;;;;;;5.46;70.05;98998.53;1715758;82;20378;-86
2021/11/11 05:13:23;;;;;;;;;;;;;;;5.47;70.14;99003.67;1716164;82;24972;-86
2021/11/11 05:15:49;;;;;;;;;;;;;;;5.43;70.20;99004.70;1720959;82;22012;-85
2021/11/11 05:18:15;;;;;;;;;;;;;;;5.41;70.25;99005.21;1714431;82;26153;-86
2021/11/11 05:20:41;;;;;;;;;;;;;;;5.37;70.29;99008.84;1719520;82;24423;-86
2021/11/11 05:23:07;;;;;;;;;;;;;;;5.33;70.33;99000.79;1710015;83;20255;-85
2021/11/11 05:25:33;;;;;;;;;;;;;;;5.27;70.36;98998.44;1681296;83;24749;-86
2021/11/11 05:28:00;;;;;;;;;;;;;;;5.28;70.43;99005.33;1710938;82;22052;-85
2021/11/11 05:30:29;;;;;;;;;;;;;;;5.26;70.48;99003.23;1710009;82;26160;-85
2021/11/11 05:32:56;;;;;;;;;;;;;;;5.25;70.54;99002.83;1710594;82;24841;-85
2021/11/11 05:35:31;;;;;;;;;;;;;;;5.24;70.61;99001.58;1713454;83;20317;-86
2021/11/11 05:37:58;;;;;;;;;;;;;;;5.24;70.67;99001.58;1710923;82;25802;-86
2021/11/11 05:40:24;;;;;;;;;;;;;;;5.29;70.75;98995.31;1681055;82;21867;-85
2021/11/11 05:42:50;;;;;;;;;;;;;;;5.30;70.81;99002.20;1712776;83;25992;-85
2021/11/11 05:45:16;;;;;;;;;;;;;;;5.31;70.86;99004.34;1711743;83;24412;-85
2021/11/11 05:47:46;;;;;;;;;;;;;;;5.28;70.92;99007.91;1711799;82;20254;-86
2021/11/11 05:50:14;;;;;;;;;;;;;;;5.24;70.95;98998.98;1710801;82;25112;-86
2021/11/11 05:52:40;;;;;;;;;;;;;;;5.20;71.00;99004.77;1715075;82;21985;-86
2021/11/11 05:55:07;;;;;;;;;;;;;;;5.18;71.05;99007.89;1712310;82;25917;-86
2021/11/11 05:57:33;;;;;;;;;;;;;;;5.15;71.13;98999.36;1712490;82;24392;-86
2021/11/11 05:59:59;;;;;;;;;;;;;;;5.13;71.19;99005.89;1714441;82;20389;-86
2021/11/11 06:02:25;;;;;;;;;;;;;;;5.15;71.25;99001.95;1709322;83;25743;-85
2021/11/11 06:04:52;;;;;;;;;;;;;;;5.15;71.34;99003.25;1713369;82;22216;-86
2021/11/11 06:07:18;;;;;;;;;;;;;;;5.12;71.40;98999.05;1710581;82;26782;-86
2021/11/11 06:09:44;;;;;;;;;;;;;;;5.12;71.47;98999.05;1715068;82;24476;-85
2021/11/11 06:12:10;;;;;;;;;;;;;;;5.12;71.55;98996.45;1712265;82;20252;-85
2021/11/11 06:14:39;;;;;;;;;;;;;;;5.13;71.62;98998.59;1713515;82;25788;-85
2021/11/11 06:17:06;;;;;;;;;;;;;;;5.12;71.71;99002.94;1707316;83;22001;-86
2021/11/11 06:19:37;;;;;;;;;;;;;;;5.11;71.78;99014.20;1710017;82;25973;-86
2021/11/11 06:22:03;;;;;;;;;;;;;;;5.13;71.86;99007.67;1708704;83;24436;-86
2021/11/11 06:24:30;;;;;;;;;;;;;;;5.13;71.93;99006.38;1708928;83;20213;-86
2021/11/11 06:26:56;;;;;;;;;;;;;;;5.14;72.00;99002.85;1716837;82;24976;-86
2021/11/11 06:29:22;;;;;;;;;;;;;;;5.17;72.06;99001.45;1711838;83;22085;-85
2021/11/11 06:31:48;;;;;;;;;;;;;;;5.17;72.12;99003.59;1706105;82;26016;-86
2021/11/11 06:34:15;;;;;;;;;;;;;;;5.19;72.21;99007.41;1677821;84;25273;-85
2021/11/11 06:36:43;;;;;;;;;;;;;;;5.22;72.27;99002.97;1709530;83;20257;-85
2021/11/11 06:39:09;;;;;;;;;;;;;;;5.28;72.32;98996.23;1675679;84;25107;-85
2021/11/11 06:41:35;;;;;;;;;;;;;;;5.32;72.40;98996.95;1718194;82;21816;-86
2021/11/11 06:44:02;;;;;;;;;;;;;;;5.32;72.46;99000.39;1712428;83;26992;-85
2021/11/11 06:46:28;;;;;;;;;;;;;;;5.34;72.53;99000.34;1712109;83;24789;-86
2021/11/11 06:48:54;;;;;;;;;;;;;;;5.36;72.58;99005.84;1714487;83;20242;-86
2021/11/11 06:51:20;;;;;;;;;;;;;;;5.38;72.63;98989.77;1711761;82;24990;-86
2021/11/11 06:53:46;;;;;;;;;;;;;;;5.43;72.69;98988.28;1679710;84;21995;-86
2021/11/11 06:56:13;;;;;;;;;;;;;;;5.43;72.76;98991.73;1678588;84;26262;-86
2021/11/11 06:58:39;;;;;;;;;;;;;;;5.46;72.81;98989.00;1685067;84;24517;-85
2021/11/11 07:01:05;;;;;;;;;;;;;;;5.50;72.85;98991.48;1682518;84;20346;-85
2021/11/11 07:03:32;;;;;;;;;;;;;;;5.52;72.90;98996.14;1706587;83;24963;-85
2021/11/11 07:05:59;;;;;;;;;;;;;;;5.55;72.95;98993.44;1707955;83;22031;-86
2021/11/11 07:08:25;;;;;;;;;;;;;;;5.55;72.99;98993.44;1712355;83;26043;-86
2021/11/11 07:10:54;;;;;;;;;;;;;;;5.59;73.05;99000.19;1682024;84;24704;-86
2021/11/11 07:13:29;;;;;;;;;;;;;;;5.59;73.06;98989.80;1706640;84;20245;-85
2021/11/11 07:15:55;;;;;;;;;;;;;;;5.64;73.12;98984.81;1679032;84;25019;-86
2021/11/11 07:18:21;;;;;;;;;;;;;;;5.69;73.15;98985.92;1722539;82;22048;-85
2021/11/11 07:20:49;;;;;;;;;;;;;;;5.71;73.17;98986.71;1719902;82;25960;-86
2021/11/11 07:23:23;;;;;;;;;;;;;;;5.72;73.20;98994.45;1712429;83;24512;-86
2021/11/11 07:25:51;;;;;;;;;;;;;;;5.73;73.22;98987.47;1664345;84;20269;-86
2021/11/11 07:28:17;;;;;;;;;;;;;;;5.74;73.25;98986.56;1706255;82;24959;-86
2021/11/11 07:30:44;;;;;;;;;;;;;;;5.74;73.28;98983.52;1706082;84;21948;-86
2021/11/11 07:33:13;;;;;;;;;;;;;;;5.76;73.30;98984.77;1678633;84;25976;-85
2021/11/11 07:35:42;;;;;;;;;;;;;;;5.79;73.34;98982.03;1720443;82;25184;-86
2021/11/11 07:38:09;;;;;;;;;;;;;;;5.79;73.37;98980.73;1716669;82;20213;-86
2021/11/11 07:40:38;;;;;;;;;;;;;;;5.79;73.38;98980.73;1715490;82;25692;-86
2021/11/11 07:43:05;;;;;;;;;;;;;;;5.79;73.42;98981.58;1714881;83;21928;-86
2021/11/11 07:45:32;;;;;;;;;;;;;;;5.80;73.49;98978.08;1714179;83;26963;-86
2021/11/11 07:48:01;;;;;;;;;;;;;;;5.82;73.51;98983.22;1712761;83;24492;-85
2021/11/11 07:50:27;;;;;;;;;;;;;;;5.85;73.56;98979.17;1713127;83;20271;-86
2021/11/11 07:52:56;;;;;;;;;;;;;;;5.87;73.61;98975.66;1711238;83;24933;-86
2021/11/11 07:55:21;;;;;;;;;;;;;;;5.93;73.66;98981.05;1681592;83;22079;-86
2021/11/11 07:57:47;;;;;;;;;;;;;;;5.98;73.72;98977.80;1710957;83;25928;-86
2021/11/11 08:00:16;;;;;;;;;;;;;;;6.04;73.79;98976.69;1713832;83;24420;-85
2021/11/11 08:02:42;;;;;;;;;;;;;;;6.09;73.81;98979.48;1714689;83;20501;-86
2021/11/11 08:05:10;;;;;;;;;;;;;;;6.13;73.86;98971.94;1715397;83;24910;-86
2021/11/11 08:07:37;;;;;;;;;;;;;;;6.19;73.89;98969.52;1709148;83;22523;-86
2021/11/11 08:10:04;;;;;;;;;;;;;;;6.26;73.94;98965.30;1708068;83;25976;-85
2021/11/11 08:12:31;;;;;;;;;;;;;;;6.32;74.00;98972.44;1713707;83;24656;-85
2021/11/11 08:14:58;;;;;;;;;;;;;;;6.37;74.02;98974.38;1713140;82;20631;-86
2021/11/11 08:17:24;;;;;;;;;;;;;;;6.43;74.05;98967.61;1680399;83;25062;-86
2021/11/11 08:19:56;;;;;;;;;;;;;;;6.46;74.10;98967.46;1710105;83;21924;-86
2021/11/11 08:22:24;;;;;;;;;;;;;;;6.52;74.12;98960.69;1710560;83;25962;-86
2021/11/11 08:24:50;;;;;;;;;;;;;;;6.61;74.18;98959.81;1705172;82;24456;-86
2021/11/11 08:27:24;;;;;;;;;;;;;;;6.66;74.20;98957.84;1716225;83;20240;-86
2021/11/11 08:29:50;;;;;;;;;;;;;;;6.73;74.20;98955.81;1714748;83;24951;-86
2021/11/11 08:32:16;;;;;;;;;;;;;;;6.80;74.24;98954.63;1713431;82;22023;-87
2021/11/11 08:34:43;;;;;;;;;;;;;;;6.86;74.25;98951.73;1710837;83;26035;-87
2021/11/11 08:37:09;;;;;;;;;;;;;;;6.95;74.27;98947.40;1711078;83;24502;-87
2021/11/11 08:39:36;;;;;;;;;;;;;;;7.03;74.30;98945.75;1712826;82;20279;-87
2021/11/11 08:42:03;;;;;;;;;;;;;;;7.13;74.31;98945.69;1702518;82;24947;-87
2021/11/11 08:44:29;;;;;;;;;;;;;;;7.22;74.32;98945.70;1708320;82;22141;-87
2021/11/11 08:46:55;;;;;;;;;;;;;;;7.28;74.34;98943.65;1705776;83;26040;-87
2021/11/11 08:49:22;;;;;;;;;;;;;;;7.36;74.34;98933.72;1709993;82;24493;-87
2021/11/11 08:51:49;;;;;;;;;;;;;;;7.43;74.35;98921.22;1674054;83;20282;-87
2021/11/11 08:54:16;;;;;;;;;;;;;;;7.47;74.36;98926.69;1705247;82;25120;-87
2021/11/11 08:56:48;;;;;;;;;;;;;;;7.56;74.35;98932.73;1708548;83;22027;-87
2021/11/11 08:59:11;;;;;;;;;;;;;;;7.62;74.35;98930.28;1702686;81;26092;-87
2021/11/11 09:01:37;;;;;;;;;;;;;;;7.67;74.35;98920.02;1706247;83;24505;-87
2021/11/11 09:04:03;;;;;;;;;;;;;;;7.70;74.37;98919.00;1711558;83;20242;-87
2021/11/11 09:06:30;;;;;;;;;;;;;;;7.74;74.35;98912.28;1709538;82;25008;-88
2021/11/11 09:08:56;;;;;;;;;;;;;;;7.80;74.35;98909.33;1678348;83;22004;-87
2021/11/11 09:11:22;;;;;;;;;;;;;;;7.84;74.34;98910.88;1712380;82;26019;-87
2021/11/11 09:13:48;;;;;;;;;;;;;;;7.92;74.35;98906.56;1709664;82;24435;-87
2021/11/11 09:16:15;;;;;;;;;;;;;;;8.00;74.38;98910.94;1703699;83;20271;-87
2021/11/11 09:18:42;;;;;;;;;;;;;;;8.05;74.37;98912.00;1711075;82;24989;-87
2021/11/11 09:21:09;;;;;;;;;;;;;;;8.08;74.38;98911.82;1711438;83;21955;-87
2021/11/11 09:23:39;;;;;;;;;;;;;;;8.14;74.36;98899.31;1710441;82;26565;-87
2021/11/11 09:26:07;;;;;;;;;;;;;;;8.24;74.35;98901.81;1718107;82;24456;-87
2021/11/11 09:28:34;;;;;;;;;;;;;;;8.31;74.33;98893.25;1720829;82;20690;-87
2021/11/11 09:31:01;;;;;;;;;;;;;;;8.40;74.33;98894.05;1712356;82;24938;-87
2021/11/11 09:33:27;;;;;;;;;;;;;;;8.51;74.34;98893.01;1714880;82;21978;-87
2021/11/11 09:35:55;;;;;;;;;;;;;;;8.60;74.34;98888.62;1709456;82;25985;-87
2021/11/11 09:38:23;;;;;;;;;;;;;;;8.67;74.35;98891.73;1720774;82;24452;-87
2021/11/11 09:40:49;;;;;;;;;;;;;;;8.71;74.30;98892.78;1717327;82;20224;-87
2021/11/11 09:43:15;;;;;;;;;;;;;;;8.80;74.23;98890.12;1712390;82;24945;-88
2021/11/11 09:45:45;;;;;;;;;;;;;;;8.87;74.22;98886.71;1684702;82;20144;-88
2021/11/11 09:48:14;;;;;;;;;;;;;;;8.93;74.18;98884.61;1697659;83;26142;-87
2021/11/11 09:50:40;;;;;;;;;;;;;;;9.02;74.10;98876.25;1717959;82;24275;-88
2021/11/11 09:53:11;;;;;;;;;;;;;;;9.10;74.07;98880.59;1703593;82;20628;-87
2021/11/11 09:58:34;;;;;;;;;;;;;;;9.23;73.99;98880.25;1686757;84;22054;-87
2021/11/11 10:01:02;;;;;;;;;;;;;;;9.29;73.89;98875.14;1696145;83;26811;-87
2021/11/11 10:03:28;;;;;;;;;;;;;;;9.35;73.82;98874.79;1700646;83;24523;-87
2021/11/11 10:05:55;;;;;;;;;;;;;;;9.41;73.75;98878.36;1717840;81;20366;-87
2021/11/11 10:08:32;;;;;;;;;;;;;;;9.47;73.68;98876.70;1685896;84;25664;-88
2021/11/11 10:10:58;;;;;;;;;;;;;;;9.49;73.63;98877.92;1696459;83;21992;-88
2021/11/11 10:13:25;;;;;;;;;;;;;;;9.52;73.53;98882.49;1699980;83;25962;-87
2021/11/11 10:16:03;;;;;;;;;;;;;;;9.61;73.46;98876.72;1700269;83;24461;-87
2021/11/11 10:18:42;;;;;;;;;;;;;;;9.61;73.37;98881.94;1719236;81;20294;-87
2021/11/11 10:21:20;;;;;;;;;;;;;;;9.65;73.28;98878.20;1686395;84;25004;-88
2021/11/11 10:23:47;;;;;;;;;;;;;;;9.68;73.20;98878.51;1700600;82;21918;-87
2021/11/11 10:26:18;;;;;;;;;;;;;;;9.71;73.12;98880.92;1711106;82;26026;-87
2021/11/11 10:28:44;;;;;;;;;;;;;;;9.76;73.06;98880.69;1709803;82;24613;-88
2021/11/11 10:31:15;;;;;;;;;;;;;;;9.83;73.03;98884.59;1706537;82;20301;-87
2021/11/11 10:34:00;;;;;;;;;;;;;;;9.87;72.96;98881.70;1698202;83;24791;-88
2021/11/11 10:36:40;;;;;;;;;;;;;;;9.91;72.87;98878.45;1698634;83;22087;-87
2021/11/11 10:39:08;;;;;;;;;;;;;;;9.95;72.78;98874.25;1698337;83;26255;-87
2021/11/11 10:41:34;;;;;;;;;;;;;;;10.02;72.67;98870.34;1698554;83;24417;-87
2021/11/11 10:44:02;;;;;;;;;;;;;;;10.09;72.58;98872.13;1696882;83;20228;-87
2021/11/11 10:46:45;;;;;;;;;;;;;;;10.10;72.47;98876.39;1693379;83;24996;-87
2021/11/11 10:49:18;;;;;;;;;;;;;;;10.13;72.37;98869.69;1697812;83;21974;-88
2021/11/11 10:51:44;;;;;;;;;;;;;;;10.18;72.24;98861.12;1685380;83;26181;-87
2021/11/11 10:54:11;;;;;;;;;;;;;;;10.26;72.12;98870.63;1699439;83;24398;-87
2021/11/11 10:56:45;;;;;;;;;;;;;;;10.31;72.04;98871.19;1698956;83;20247;-87
2021/11/11 10:59:12;;;;;;;;;;;;;;;10.38;71.96;98871.66;1698743;83;25153;-88
2021/11/11 11:01:38;;;;;;;;;;;;;;;10.45;71.91;98865.95;1701170;83;22067;-87
2021/11/11 11:04:04;;;;;;;;;;;;;;;10.49;71.83;98861.36;1697447;83;25961;-87
2021/11/11 11:06:36;;;;;;;;;;;;;;;10.50;71.74;98865.66;1697008;83;24386;-87
2021/11/11 11:09:02;;;;;;;;;;;;;;;10.52;71.62;98866.42;1697763;83;20230;-87
2021/11/11 11:11:30;;;;;;;;;;;;;;;10.57;71.51;98868.28;1699335;83;24931;-87
2021/11/11 11:13:58;;;;;;;;;;;;;;;10.65;71.40;98867.77;1700112;83;22063;-88
2021/11/11 11:16:26;;;;;;;;;;;;;;;10.71;71.33;98875.24;1699923;83;25964;-88
2021/11/11 11:18:58;;;;;;;;;;;;;;;10.73;71.26;98874.69;1698037;83;24515;-87
2021/11/11 11:21:26;;;;;;;;;;;;;;;10.75;71.16;98878.03;1698238;83;20693;-88
2021/11/11 11:23:54;;;;;;;;;;;;;;;10.76;71.08;98877.09;1697841;83;25133;-87
2021/11/11 11:26:25;;;;;;;;;;;;;;;10.84;71.00;98882.70;1681017;84;22869;-88
2021/11/11 11:29:11;;;;;;;;;;;;;;;10.87;70.88;98885.11;1683524;84;26819;-87
2021/11/11 11:31:50;;;;;;;;;;;;;;;10.90;70.78;98883.16;1711278;82;24412;-88
2021/11/11 11:34:14;;;;;;;;;;;;;;;10.96;70.68;98892.87;1705821;83;20250;-87
2021/11/11 11:36:42;;;;;;;;;;;;;;;11.01;70.61;98879.84;1694035;83;24958;-89
2021/11/11 11:39:08;;;;;;;;;;;;;;;11.07;70.54;98886.47;1705239;83;22685;-87
2021/11/11 11:41:36;;;;;;;;;;;;;;;11.12;70.47;98881.77;1706190;83;26154;-88
2021/11/11 11:44:16;;;;;;;;;;;;;;;11.17;70.39;98881.00;1700498;83;24415;-88
2021/11/11 11:47:04;;;;;;;;;;;;;;;11.16;70.30;98880.63;1705261;83;20174;-88
2021/11/11 11:49:28;;;;;;;;;;;;;;;11.13;70.13;98877.72;1701087;83;24964;-88
2021/11/11 11:51:55;;;;;;;;;;;;;;;11.16;70.01;98884.09;1703514;83;21972;-87
2021/11/11 11:54:32;;;;;;;;;;;;;;;11.21;69.92;98882.01;1702043;83;26036;-88
2021/11/11 11:56:57;;;;;;;;;;;;;;;11.24;69.81;98877.86;1704412;83;24510;-86
2021/11/11 11:59:23;;;;;;;;;;;;;;;11.27;69.73;98879.45;1702573;83;20324;-88
2021/11/11 12:04:30;;;;;;;;;;;;;;;11.28;69.54;98869.35;1706327;83;21971;-88
2021/11/11 12:09:41;;;;;;;;;;;;;;;11.30;69.35;98876.16;1699374;83;24430;-88
2021/11/11 12:15:05;;;;;;;;;;;;;;;11.39;69.21;98875.20;1702354;83;24940;-87
2021/11/11 12:39:44;;;;;;;;;;;;;;;11.28;68.32;98857.09;1663106;85;20300;-87
2021/11/11 12:42:14;;;;;;;;;;;;;;;11.28;68.23;98849.23;1663591;85;25857;-87
2021/11/11 12:44:59;;;;;;;;;;;;;;;11.26;68.17;98850.26;1665283;86;21997;-87
2021/11/11 12:47:33;;;;;;;;;;;;;;;11.25;68.10;98855.13;1664289;84;26076;-88
2021/11/11 12:50:18;;;;;;;;;;;;;;;11.20;68.00;98848.88;1665363;85;25123;-88
2021/11/11 12:52:45;;;;;;;;;;;;;;;11.23;67.91;98846.55;1664497;84;20253;-87
2021/11/11 12:55:20;;;;;;;;;;;;;;;11.27;67.87;98844.93;1665053;86;25013;-88
2021/11/11 12:57:57;;;;;;;;;;;;;;;11.30;67.84;98847.33;1664428;85;22058;-87
2021/11/11 13:00:32;;;;;;;;;;;;;;;11.28;67.77;98847.92;1664175;85;25449;-88
2021/11/11 13:03:06;;;;;;;;;;;;;;;11.29;67.71;98850.89;1660695;85;25376;-88
2021/11/11 13:05:50;;;;;;;;;;;;;;;11.30;67.68;98847.80;1660972;85;20226;-88
2021/11/11 13:08:20;;;;;;;;;;;;;;;11.30;67.62;98857.81;1665174;85;25971;-88
2021/11/11 13:11:04;;;;;;;;;;;;;;;11.31;67.56;98854.26;1665235;86;22189;-88
2021/11/11 13:13:33;;;;;;;;;;;;;;;11.29;67.50;98860.05;1663384;85;26162;-88
2021/11/11 13:16:01;;;;;;;;;;;;;;;11.29;67.47;98864.48;1665180;86;24541;-88
2021/11/11 13:18:44;;;;;;;;;;;;;;;11.25;67.40;98861.21;1665054;85;20662;-88
2021/11/11 13:21:12;;;;;;;;;;;;;;;11.26;67.36;98856.34;1665229;84;24869;-88
2021/11/11 13:23:56;;;;;;;;;;;;;;;11.26;67.28;98862.89;1665051;86;21988;-88
2021/11/11 13:26:49;;;;;;;;;;;;;;;11.26;67.22;98859.43;1694219;83;26075;-88
2021/11/11 13:54:30;;;;;;;;;;;;;;;11.12;66.74;98861.66;1692602;84;26031;-88
2021/11/11 14:03:06;;;;;;;;;;;;;;;10.98;66.58;98868.70;1694598;84;25657;-88
2021/11/11 15:13:30;;;;;;;;;;;;;;;9.63;66.66;98870.10;1714565;83;26234;-88
2021/11/11 16:24:46;;;;;;;;;;;;;;;7.91;68.06;98933.08;1799671;78;21986;-87
2021/11/11 16:27:03;;;;;;;;;;;;;;;7.89;68.15;98939.31;1824905;77;25967;-87
2021/11/11 16:29:30;;;;;;;;;;;;;;;7.85;68.25;98941.23;1826664;77;25225;-87
2021/11/11 16:31:57;;;;;;;;;;;;;;;7.81;68.33;98935.77;1828253;77;20213;-87
2021/11/11 16:34:26;;;;;;;;;;;;;;;7.78;68.40;98935.94;1828082;77;25215;-87
2021/11/11 16:36:53;;;;;;;;;;;;;;;7.78;68.50;98937.25;1827123;78;21964;-87